Norris Rancho Marino Reserve, California Weather observations

Data are for 10 minute period ending at time listed.
 Day   Time   Solar   Ave.   Ave.  Ave.  Vector  Max.   Baro.   Total    
  of    of     Rad.   Air    Rel.  Wind   Wind   Wind  Press.  Precip.   
Year   Day            Temp.  Hum.  Speed  Dir.   Gust                    
2016   (PST)  Kw/m2    F      %     mph   deg.    mph    mb.     in.     
-------------------------------------------------------------------------
 270    4:40   0.00   71.1    26    2.0    26     3.7   1010.7    0.00 
 270    4:50   0.00   71.3    26    2.2    31     3.7   1010.7    0.00 
 270    5:00   0.00   69.7    28    2.2   106     3.7   1010.9    0.00 
 270    5:10   0.00   64.7    43    3.8   123     5.9   1011.2    0.00 
 270    5:20   0.00   66.0    34    1.8    50     3.4   1011.1    0.00 
 270    5:30   0.00   63.5    45    5.0   132     7.3   1011.3    0.00 
 270    5:40   0.00   63.1    47    4.7   120     6.9   1011.4    0.00 
 270    5:50   0.00   62.2    51    2.0    88     4.1   1011.3    0.00 
 270    6:00   0.00   64.7    43    1.3    69     3.3   1011.3    0.00 
 270    6:10   0.01   68.6    30    3.0   359     5.3   1011.3    0.00 
 270    6:20   0.01   71.9    26    2.4    42     5.8   1011.4    0.00 
 270    6:30   0.01   71.6    26    2.5    56     4.1   1011.5    0.00 
 270    6:40   0.02   66.3    48    3.6   115     5.8   1011.8    0.00 
 270    6:50   0.03   68.5    34    2.5    60     4.1   1011.8    0.00 
 270    7:00   0.11   70.6    30    3.3    52     4.7   1011.8    0.00 
 270    7:10   0.15   68.0    42    4.6   120     7.5   1012.0    0.00 
 270    7:20   0.18   72.8    28    2.7   116     4.3   1012.1    0.00 
 270    7:30   0.21   71.0    37    3.4   123     6.5   1012.2    0.00 
 270    7:40   0.25   75.7    26    0.9    51     1.8   1011.9    0.00 
 270    7:50   0.28   78.4    23    0.1    45     1.0   1011.6    0.00 
 270    8:00   0.31   80.7    22    0.4   200     1.8   1011.4    0.00 
 270    8:10   0.34   80.2    22    0.3   186     2.3   1011.2    0.00 
 270    8:20   0.37   80.0    23    0.6   153     2.3   1011.3    0.00 
 270    8:30   0.41   82.9    20    1.0   179     3.1   1011.3    0.00 
 270    8:40   0.44   82.5    20    1.3   214     3.9   1011.4    0.00 
 270    8:50   0.47   88.9    15    5.4    73    13.7   1011.4    0.00 
 270    9:00   0.49   90.6    15    5.8    85    15.3   1011.5    0.00 
 270    9:10   0.52   96.6    10    8.1    83    14.5   1011.7    0.00 
 270    9:20   0.55   95.7    11    8.7   100    16.6   1011.9    0.00 
 270    9:30   0.57   81.0    24    4.1   226     9.1   1012.0    0.00 
 270    9:40   0.59   86.3    18    3.1   282    12.3   1011.9    0.00 
 270    9:50   0.62   94.9    12    8.3   109    17.2   1011.9    0.00 
 270   10:00   0.64   97.7    10   11.2   105    18.5   1011.9    0.00 
 270   10:10   0.66   98.1    10    9.3   109    20.2   1011.8    0.00 
 270   10:20   0.68   94.5    14    9.9   121    20.5   1011.9    0.00 
 270   10:30   0.69   76.9    34    3.6   156     8.8   1012.2    0.00 
 270   10:40   0.71   75.5    38    2.9   213     5.8   1012.0    0.00 
 270   10:50   0.72   77.2    34    2.7   152     5.4   1011.7    0.00 
 270   11:00   0.74   73.9    43    4.5   158     7.5   1011.5    0.00 
 270   11:10   0.75   71.4    49    3.8   159     6.1   1011.3    0.00 
 270   11:20   0.76   72.1    48    3.3   185     5.4   1011.1    0.00 
 270   11:30   0.76   71.9    48    1.7   241     4.5   1011.0    0.00 
 270   11:40   0.76   73.2    47    2.9   249     4.4   1011.0    0.00 
 270   11:50   0.77   74.4    45    3.9   266     7.2   1010.9    0.00 
 270   12:00   0.78   75.1    42    5.4   283     6.9   1010.8    0.00 
 270   12:10   0.78   77.9    33    6.1   290     7.6   1010.6    0.00 
 270   12:20   0.78   80.1    29    8.6   288    12.1   1010.5    0.00 
 270   12:30   0.77   81.4    25   10.0   293    11.8   1010.3    0.00 
 270   12:40   0.76   80.7    30    8.2   291     9.8   1010.3    0.00 
 270   12:50   0.76   80.4    29    8.1   294    10.0   1010.2    0.00 
 270   13:00   0.75   81.4    27    7.6   296     9.4   1010.2    0.00 
 270   13:10   0.74   84.5    20    7.4   288     8.9   1010.2    0.00 
 270   13:20   0.73   84.3    20    8.4   287    10.2   1010.3    0.00 
 270   13:30   0.72   84.0    21    8.4   289     9.9   1010.2    0.00 
 270   13:40   0.70   84.1    23    8.8   292    10.7   1010.1    0.00 
 270   13:50   0.69   82.1    28    8.2   292    10.8   1010.1    0.00 
 270   14:00   0.66   77.7    36    5.8   282    10.0   1010.2    0.00 
 270   14:10   0.65   78.2    38    5.8   288     8.5   1010.2    0.00 
 270   14:20   0.62   78.2    38    7.4   291    10.0   1010.2    0.00 
 270   14:30   0.57   79.7    35    8.2   296    10.4   1010.0    0.00 
 270   14:40   0.58   83.5    27    8.2   296    10.7   1009.9    0.00 
 270   14:50   0.56   80.3    33    7.9   296    10.5   1009.9    0.00 
 270   15:00   0.53   82.6    28    8.8   296    11.0   1010.0    0.00 
 270   15:10   0.51   83.8    25    8.9   296    11.5   1010.0    0.00 
 270   15:20   0.48   81.1    30    7.2   295     9.3   1010.0    0.00 
 270   15:30   0.45   81.8    28    7.9   302    10.2   1010.0    0.00 
 270   15:40   0.42   79.5    32    8.0   294    10.7   1009.9    0.00 
 270   15:50   0.39   83.8    24    8.3   300    11.6   1009.7    0.00 
 270   16:00   0.36   79.6    30    8.5   297    10.7   1009.6    0.00 
 270   16:10   0.33   80.1    29    7.9   297    10.2   1009.6    0.00 
 270   16:20   0.29   80.1    28    8.8   302    12.3   1009.5    0.00 
 270   16:30   0.26   83.5    23    8.5   299    11.5   1009.4    0.00 
 270   16:40   0.23   82.2    24    8.4   302    12.4   1009.3    0.00 
 270   16:50   0.20   78.1    32    7.8   298    11.8   1009.3    0.00 
 270   17:00   0.17   79.7    29    7.4   305    10.5   1009.1    0.00 
 270   17:10   0.14   76.4    36    7.6   296    10.7   1009.1    0.00 
 270   17:20   0.10   73.1    42    6.9   298     8.7   1008.9    0.00 
 270   17:30   0.09   70.7    47    5.8   304     6.9   1008.7    0.00 
 270   17:40   0.05   72.6    42    5.6   304    10.3   1008.5    0.00 
 270   17:50   0.03   69.6    50    4.2   300     6.4   1008.6    0.00 
 270   18:00   0.01   70.6    46    5.2   307     8.8   1008.6    0.00 
 270   18:10   0.00   71.7    42    6.0   303     7.2   1008.8    0.00 
 270   18:20   0.00   71.2    41    5.1   299     7.4   1008.9    0.00 
 270   18:30   0.00   72.0    38    4.2   303     6.4   1009.0    0.00 
 270   18:40   0.00   70.9    39    5.3   319     8.2   1009.1    0.00 
 270   18:50   0.00   70.6    42    3.5   306     7.0   1009.2    0.00 
 270   19:00   0.00   71.2    37    3.5   319     5.8   1009.2    0.00 
 270   19:10   0.00   67.5    51    5.5   291     8.8   1009.3    0.00 
 270   19:20   0.00   65.4    58    6.2   126     9.1   1009.5    0.00 
 270   19:30   0.00   65.4    58    4.5   127     5.7   1009.6    0.00 
 270   19:40   0.00   66.4    53    4.5   131     6.8   1009.6    0.00 
 270   19:50   0.00   65.7    55    5.2   129     6.1   1009.8    0.00 
 270   20:00   0.00   65.9    53    5.5   122     6.9   1009.8    0.00 
 270   20:10   0.00   67.1    47    4.8   124     5.8   1009.9    0.00 
 270   20:20   0.00   68.0    44    3.8   128     4.7   1009.9    0.00 
 270   20:30   0.00   68.2    44    3.2   134     4.2   1009.9    0.00 
 270   20:40   0.00   67.7    46    5.2   124     6.0   1009.9    0.00 
 270   20:50   0.00   68.1    45    5.3   123     6.2   1009.9    0.00 
 270   21:00   0.00   68.5    46    5.0   117     6.1   1010.0    0.00 
 270   21:10   0.00   67.9    47    4.1   121     5.3   1010.0    0.00 
 270   21:20   0.00   68.0    46    1.3    96     3.0   1010.0    0.00 
 270   21:30   0.00   68.1    45    1.4    96     2.7   1010.0    0.00 
 270   21:40   0.00   68.1    41    1.2   112     2.2   1009.9    0.00 
 270   21:50   0.00   68.1    45    0.9   125     2.4   1009.9    0.00 
 270   22:00   0.00   68.5    41    0.1     4     1.1   1009.9    0.00 
 270   22:10   0.00   69.3    37    0.4     3     1.2   1009.9    0.00 
 270   22:20   0.00   69.0    38    2.8   307     3.9   1009.8    0.00 
 270   22:30   0.00   66.9    46    2.7   299     3.3   1009.8    0.00 
 270   22:40   0.00   67.5    36    0.7   293     2.1   1009.7    0.00 
 270   22:50   0.00   67.4    37    0.2   278     1.2   1009.8    0.00 
 270   23:00   0.00   65.7    46    1.0   156     2.0   1009.8    0.00 
 270   23:10   0.00   64.9    51    1.0   354     1.8   1009.8    0.00 
 270   23:20   0.00   64.5    54    1.2   116     3.4   1009.7    0.00 
 270   23:30   0.00   63.8    54    2.4   126     2.9   1009.6    0.00 
 270   23:40   0.00   64.5    46    2.6   104     3.5   1009.4    0.00 
 270   23:50   0.00   66.2    37    1.4   107     3.4   1009.4    0.00 
 271    0:00   0.00   65.3    42    2.2   102     3.2   1009.4    0.00 
 271    0:10   0.00   68.0    32    1.3    99     2.9   1009.4    0.00 
 271    0:20   0.00   70.1    30    2.8   119     3.9   1009.4    0.00 
 271    0:30   0.00   70.1    30    2.4   116     3.8   1009.4    0.00 
 271    0:40   0.00   69.8    29    1.9   107     3.4   1009.4    0.00 
 271    0:50   0.00   69.3    31    1.6   123     2.4   1009.4    0.00 
 271    1:00   0.00   69.6    28    0.1    86     1.7   1009.4    0.00 
 271    1:10   0.00   69.6    28    0.6    91     1.5   1009.4    0.00 
 271    1:20   0.00   68.7    31    0.7   308     1.8   1009.4    0.00 
 271    1:30   0.00   68.8    29    1.1   348     2.7   1009.3    0.00 
 271    1:40   0.00   70.4    26    0.9    24     2.2   1009.2    0.00 
 271    1:50   0.00   70.7    25    0.4   355     1.5   1009.2    0.00 
 271    2:00   0.00   71.7    24    0.7    20     1.8   1009.0    0.00 
 271    2:10   0.00   70.9    25    1.3    25     2.6   1009.0    0.00 
 271    2:20   0.00   71.2    25    1.2    33     2.3   1009.0    0.00 
 271    2:30   0.00   71.0    25    1.2    47     2.4   1008.9    0.00 
 271    2:40   0.00   70.8    25    0.8    51     2.0   1008.8    0.00 
 271    2:50   0.00   70.8    24    2.0    32     3.2   1008.8    0.00 
 271    3:00   0.00   71.2    24    1.8    27     3.1   1008.8    0.00 
 271    3:10   0.00   71.0    24    1.3    43     2.5   1008.7    0.00 
 271    3:20   0.00   71.8    23    1.6    29     2.6   1008.6    0.00 
 271    3:30   0.00   71.7    24    0.6     2     2.4   1008.6    0.00 
 271    3:40   0.00   70.8    25    1.5    88     2.3   1008.6    0.00 
 271    3:50   0.00   70.5    25    0.7   329     2.1   1008.7    0.00 
 271    4:00   0.00   71.0    24    1.0     6     2.3   1008.6    0.00 
 271    4:10   0.00   70.1    25    1.7   125     2.5   1008.7    0.00 
 271    4:20   0.00   69.9    25    0.7    75     2.2   1008.7    0.00 
 271    4:30   0.00   70.2    25    0.9   136     1.7   1008.6    0.00 

Return to Norris Rancho Marino Reserve graphs page.


Western Regional Climate Center,wrcc@dri.edu